createdAt,value
2017-05-26T00:00:31.208Z,1007.49
2017-05-26T00:02:46.790Z,1007.53
2017-05-26T00:05:02.369Z,1007.58
2017-05-26T00:07:09.432Z,1007.55
2017-05-26T00:09:33.437Z,1007.62
2017-05-26T00:11:57.426Z,1007.61
2017-05-26T00:14:21.408Z,1007.59
2017-05-26T00:16:45.283Z,1007.59
2017-05-26T00:19:09.267Z,1007.59
2017-05-26T00:21:33.247Z,1007.58
2017-05-26T00:23:57.219Z,1007.57
2017-05-26T00:26:12.755Z,1007.55
2017-05-26T00:28:36.772Z,1007.54
2017-05-26T00:31:00.669Z,1007.54
2017-05-26T00:33:10.547Z,1007.56
2017-05-26T00:35:34.483Z,1007.57
2017-05-26T00:37:35.796Z,1007.52
2017-05-26T00:39:59.816Z,1007.57
2017-05-26T00:42:15.298Z,1007.56
2017-05-26T00:44:39.167Z,1007.59
2017-05-26T00:47:03.046Z,1007.56
2017-05-26T00:49:27.027Z,1007.63
2017-05-26T00:51:50.996Z,1007.6
2017-05-26T00:54:00.903Z,1007.57
2017-05-26T00:56:24.834Z,1007.65
2017-05-26T00:58:48.698Z,1007.61
2017-05-26T01:01:12.579Z,1007.63
2017-05-26T01:03:28.139Z,1007.66
2017-05-26T01:05:43.633Z,1007.67
2017-05-26T01:08:07.516Z,1007.67
2017-05-26T01:10:31.409Z,1007.62
2017-05-26T01:12:55.388Z,1007.68
2017-05-26T01:14:56.874Z,1007.67
2017-05-26T01:17:20.820Z,1007.71
2017-05-26T01:19:31.142Z,1007.69
2017-05-26T01:21:55.152Z,1007.7
2017-05-26T01:24:19.138Z,1007.67
2017-05-26T01:26:29.008Z,1007.66
2017-05-26T01:28:52.954Z,1007.67
2017-05-26T01:31:16.831Z,1007.67
2017-05-26T01:33:40.701Z,1007.68
2017-05-26T01:36:04.698Z,1007.72
2017-05-26T01:38:11.736Z,1007.57
2017-05-26T01:40:36.662Z,1007.73
2017-05-26T01:43:00.561Z,1007.69
2017-05-26T01:45:24.426Z,1007.71
2017-05-26T01:47:39.900Z,1007.7
2017-05-26T01:50:03.797Z,1007.69
2017-05-26T01:52:19.254Z,1007.71
2017-05-26T01:54:34.712Z,1007.75
2017-05-26T01:56:50.191Z,1007.71
2017-05-26T01:59:14.093Z,1007.69
2017-05-26T02:01:37.969Z,1007.67
2017-05-26T02:04:01.841Z,1007.65
2017-05-26T02:06:25.746Z,1007.66
2017-05-26T02:08:41.210Z,1007.62
2017-05-26T02:11:05.093Z,1007.67
2017-05-26T02:13:28.956Z,1007.69
2017-05-26T02:15:44.428Z,1007.65
2017-05-26T02:18:08.324Z,1007.71
2017-05-26T02:20:32.211Z,1007.69
2017-05-26T02:22:56.059Z,1007.69
2017-05-26T02:25:19.950Z,1007.68
2017-05-26T02:29:20.409Z,1007.68
2017-05-26T02:31:44.271Z,1007.75
2017-05-26T02:34:08.142Z,1007.72
2017-05-26T02:36:23.600Z,1007.72
2017-05-26T02:38:47.505Z,1007.74
2017-05-26T02:41:02.997Z,1007.69
2017-05-26T02:43:26.855Z,1007.65
2017-05-26T02:45:50.737Z,1007.71
2017-05-26T02:48:14.510Z,1007.73
2017-05-26T02:50:29.957Z,1007.74
2017-05-26T02:52:53.760Z,1007.79
2017-05-26T02:54:55.558Z,1007.78
2017-05-26T02:57:10.982Z,1007.78
2017-05-26T02:59:34.778Z,1007.75
2017-05-26T03:01:58.658Z,1007.71
2017-05-26T03:04:22.536Z,1007.79
2017-05-26T03:06:46.403Z,1007.74
2017-05-26T03:09:10.188Z,1007.73
2017-05-26T03:11:33.953Z,1007.76
2017-05-26T03:13:57.727Z,1007.79
2017-05-26T03:16:21.507Z,1007.77
2017-05-26T03:18:31.397Z,1007.79
2017-05-26T03:20:55.224Z,1007.78
2017-05-26T03:23:10.602Z,1007.83
2017-05-26T03:25:34.377Z,1007.85
2017-05-26T03:27:35.756Z,1007.84
2017-05-26T03:29:59.602Z,1007.79
2017-05-26T03:32:23.370Z,1007.81
2017-05-26T03:34:47.156Z,1007.76
2017-05-26T03:37:02.528Z,1007.81
2017-05-26T03:39:26.300Z,1007.79
2017-05-26T03:41:50.069Z,1007.78
2017-05-26T03:44:13.848Z,1007.76
2017-05-26T03:46:20.783Z,1007.72
2017-05-26T03:48:44.599Z,1007.75
2017-05-26T03:50:59.980Z,1007.7
2017-05-26T03:53:23.757Z,1007.75
2017-05-26T03:55:47.533Z,1007.74
2017-05-26T03:58:11.311Z,1007.7
2017-05-26T04:00:35.118Z,1007.69
2017-05-26T04:02:58.955Z,1007.72
2017-05-26T04:05:22.728Z,1007.71
2017-05-26T04:07:46.528Z,1007.76
2017-05-26T04:10:10.395Z,1007.8
2017-05-26T04:12:34.265Z,1007.75
2017-05-26T04:14:36.163Z,1007.71
2017-05-26T04:17:00.015Z,1007.7
2017-05-26T04:19:23.886Z,1007.75
2017-05-26T04:21:47.661Z,1007.75
2017-05-26T04:23:57.541Z,1007.79
2017-05-26T04:26:21.399Z,1007.94
2017-05-26T04:28:31.733Z,1007.91
2017-05-26T04:30:55.877Z,1007.9
2017-05-26T04:33:20.067Z,1008.04
2017-05-26T04:35:44.272Z,1008.07
2017-05-26T04:38:08.693Z,1008.18
2017-05-26T04:40:33.209Z,1008.14
2017-05-26T04:42:57.945Z,1008.24
2017-05-26T04:45:23.800Z,1008.21
2017-05-26T04:47:48.696Z,1008.24
2017-05-26T04:49:59.459Z,1008.3
2017-05-26T04:52:24.735Z,1008.24
2017-05-26T04:54:50.062Z,1008.28
2017-05-26T04:57:15.618Z,1008.29
2017-05-26T04:59:41.246Z,1008.33
2017-05-26T05:01:43.512Z,1008.36
2017-05-26T05:04:09.253Z,1008.39
2017-05-26T05:06:35.116Z,1008.36
2017-05-26T05:09:01.029Z,1008.38
2017-05-26T05:11:27.066Z,1008.31
2017-05-26T05:13:44.548Z,1008.38
2017-05-26T05:15:46.935Z,1008.41
2017-05-26T05:17:49.353Z,1008.43
2017-05-26T05:20:15.616Z,1008.4
2017-05-26T05:22:41.968Z,1008.39
2017-05-26T05:25:08.316Z,1008.39
2017-05-26T05:27:34.770Z,1008.33
2017-05-26T05:30:01.315Z,1008.35
2017-05-26T05:32:27.849Z,1008.36
2017-05-26T05:34:54.516Z,1008.39
2017-05-26T05:37:21.273Z,1008.46
2017-05-26T05:39:49.061Z,1008.48
2017-05-26T05:42:07.326Z,1008.45
2017-05-26T05:44:34.155Z,1008.48
2017-05-26T05:46:52.405Z,1008.52
2017-05-26T05:49:19.370Z,1008.55
2017-05-26T05:51:39.771Z,1008.56
2017-05-26T05:54:06.722Z,1008.58
2017-05-26T05:56:33.784Z,1008.68
2017-05-26T05:59:00.822Z,1008.69
2017-05-26T06:01:27.886Z,1008.68
2017-05-26T06:03:30.614Z,1008.69
2017-05-26T06:05:57.732Z,1008.71
2017-05-26T06:08:24.773Z,1008.74
2017-05-26T06:10:53.884Z,1008.73
2017-05-26T06:13:22.070Z,1008.73
2017-05-26T06:15:49.209Z,1008.74
2017-05-26T06:18:16.377Z,1008.76
2017-05-26T06:20:34.924Z,1008.76
2017-05-26T06:23:02.086Z,1008.78
2017-05-26T06:25:12.044Z,1008.79
2017-05-26T06:27:39.201Z,1008.82
2017-05-26T06:30:06.439Z,1008.84
2017-05-26T06:32:33.737Z,1008.84
2017-05-26T06:34:52.887Z,1008.84
2017-05-26T06:37:20.327Z,1008.88
2017-05-26T06:39:47.649Z,1008.88
2017-05-26T06:42:16.037Z,1008.83
2017-05-26T06:44:44.017Z,1008.71
2017-05-26T06:47:12.473Z,1008.7
2017-05-26T06:49:54.828Z,1008.71
2017-05-26T06:53:58.749Z,1008.63
2017-05-26T06:58:02.159Z,1008.62
2017-05-26T07:02:05.254Z,1008.6
2017-05-26T07:04:31.670Z,1008.62
2017-05-26T07:07:04.847Z,1008.63
2017-05-26T07:09:37.913Z,1008.62
2017-05-26T07:12:03.945Z,1008.72
2017-05-26T07:15:57.567Z,1008.63
2017-05-26T07:18:15.773Z,1008.62
2017-05-26T07:20:49.317Z,1008.68
2017-05-26T07:24:51.177Z,1008.63
2017-05-26T07:28:44.467Z,1008.67
2017-05-26T07:31:16.705Z,1008.64
2017-05-26T07:33:44.161Z,1008.65
2017-05-26T07:36:17.251Z,1008.62
2017-05-26T07:38:49.231Z,1008.58
2017-05-26T07:41:29.172Z,1008.53
2017-05-26T07:43:56.636Z,1008.53
2017-05-26T07:46:23.063Z,1008.51
2017-05-26T07:48:48.602Z,1008.5
2017-05-26T07:51:14.122Z,1008.54
2017-05-26T07:53:47.216Z,1008.51
2017-05-26T07:56:14.699Z,1008.46
2017-05-26T07:58:48.715Z,1008.46
2017-05-26T08:01:22.209Z,1008.47
2017-05-26T08:04:02.775Z,1008.49
2017-05-26T08:06:35.256Z,1008.46
2017-05-26T08:08:46.208Z,1008.52
2017-05-26T08:11:13.792Z,1008.44
2017-05-26T08:15:15.607Z,1008.48
2017-05-26T08:17:41.191Z,1008.56
2017-05-26T08:20:07.709Z,1008.61
2017-05-26T08:22:39.321Z,1008.4
2017-05-26T08:24:41.583Z,1008.45
2017-05-26T08:27:14.842Z,1008.41
2017-05-26T08:29:48.356Z,1008.39
2017-05-26T08:32:06.346Z,1008.36
2017-05-26T08:34:31.908Z,1008.37
2017-05-26T08:38:33.705Z,1008.38
2017-05-26T08:40:59.195Z,1008.35
2017-05-26T08:43:24.704Z,1008.38
2017-05-26T08:45:50.228Z,1008.27
2017-05-26T08:48:07.155Z,1008.3
2017-05-26T08:50:32.516Z,1008.28
2017-05-26T08:52:49.425Z,1008.28
2017-05-26T08:55:14.769Z,1008.25
2017-05-26T08:57:31.663Z,1008.23
2017-05-26T08:59:57.077Z,1008.2
2017-05-26T09:02:22.488Z,1008.08
2017-05-26T09:04:47.900Z,1008.13
2017-05-26T09:07:04.807Z,1008.12
2017-05-26T09:09:30.227Z,1008.05
2017-05-26T09:11:55.630Z,1008.05
2017-05-26T09:14:20.953Z,1008.08
2017-05-26T09:16:37.750Z,1008.1
2017-05-26T09:19:03.049Z,1008.12
2017-05-26T09:21:19.869Z,1008.17
2017-05-26T09:23:45.101Z,1008.26
2017-05-26T09:26:01.897Z,1008.22
2017-05-26T09:28:27.081Z,1008.22
2017-05-26T09:30:52.296Z,1008.22
2017-05-26T09:33:17.613Z,1008.21
2017-05-26T09:35:42.824Z,1008.29
2017-05-26T09:37:59.636Z,1008.14
2017-05-26T09:40:24.938Z,1008.11
2017-05-26T09:42:50.252Z,1008.21
2017-05-26T09:45:01.037Z,1008.14
2017-05-26T09:47:26.212Z,1008.02
2017-05-26T09:49:28.010Z,1008.04
2017-05-26T09:51:53.169Z,1008.03
2017-05-26T09:54:18.379Z,1008.07
2017-05-26T09:56:43.593Z,1008.04
2017-05-26T09:58:54.337Z,1007.96
2017-05-26T10:01:19.568Z,1007.97
2017-05-26T10:03:44.768Z,1007.96
2017-05-26T10:06:09.881Z,1007.94
2017-05-26T10:08:34.986Z,1007.86
2017-05-26T10:11:00.103Z,1007.89
2017-05-26T10:13:25.210Z,1007.88
2017-05-26T10:15:50.294Z,1007.89
2017-05-26T10:18:15.301Z,1007.84
2017-05-26T10:20:40.399Z,1007.81
2017-05-26T10:23:05.498Z,1007.77
2017-05-26T10:25:30.445Z,1007.74
2017-05-26T10:27:47.000Z,1007.63
2017-05-26T10:30:11.897Z,1007.63
2017-05-26T10:32:36.791Z,1007.65
2017-05-26T10:35:01.701Z,1007.63
2017-05-26T10:37:26.591Z,1007.59
2017-05-26T10:39:51.487Z,1007.6
2017-05-26T10:42:16.414Z,1007.59
2017-05-26T10:44:32.783Z,1007.65
2017-05-26T10:46:57.579Z,1007.58
2017-05-26T10:49:13.901Z,1007.43
2017-05-26T10:51:38.678Z,1007.48
2017-05-26T10:54:03.487Z,1007.53
2017-05-26T10:56:28.292Z,1007.52
2017-05-26T10:58:30.383Z,1007.48
2017-05-26T11:00:55.142Z,1007.54
2017-05-26T11:03:19.939Z,1007.52
2017-05-26T11:05:44.744Z,1007.48
2017-05-26T11:08:09.505Z,1007.48
2017-05-26T11:10:34.233Z,1007.44
2017-05-26T11:12:59.039Z,1007.41
2017-05-26T11:17:00.191Z,1007.29
2017-05-26T11:19:02.208Z,1007.24
2017-05-26T11:21:27.042Z,1007.33
2017-05-26T11:23:51.743Z,1007.35
2017-05-26T11:26:16.459Z,1007.2
2017-05-26T11:28:41.245Z,1007.11
2017-05-26T11:31:06.045Z,1007.13
2017-05-26T11:33:30.834Z,1007.21
2017-05-26T11:35:32.382Z,1007.17
2017-05-26T11:37:57.190Z,1007.06
2017-05-26T11:40:21.898Z,1007.18
2017-05-26T11:42:46.692Z,1007.07
2017-05-26T11:45:11.502Z,1007.05
2017-05-26T11:47:36.284Z,1007.07
2017-05-26T11:50:01.075Z,1007
2017-05-26T11:52:25.882Z,1006.92
2017-05-26T11:54:50.574Z,1006.88
2017-05-26T11:56:52.144Z,1006.9
2017-05-26T11:59:16.946Z,1006.85
2017-05-26T12:01:41.730Z,1006.84
2017-05-26T12:04:06.526Z,1006.79
2017-05-26T12:06:31.319Z,1006.86
2017-05-26T12:08:56.118Z,1006.84
2017-05-26T12:11:06.742Z,1006.77
2017-05-26T12:12:59.770Z,1006.78
2017-05-26T12:15:01.301Z,1006.83
2017-05-26T12:17:26.081Z,1006.87
2017-05-26T12:19:42.396Z,1006.82
2017-05-26T12:22:07.195Z,1006.71
2017-05-26T12:24:17.831Z,1006.68
2017-05-26T12:26:42.653Z,1006.72
2017-05-26T12:29:07.392Z,1006.58
2017-05-26T12:31:32.143Z,1006.67
2017-05-26T12:33:56.940Z,1006.58
2017-05-26T12:35:59.278Z,1006.58
2017-05-26T12:38:15.548Z,1006.68
2017-05-26T12:40:40.321Z,1006.47
2017-05-26T12:43:05.120Z,1006.51
2017-05-26T12:45:30.022Z,1006.56
2017-05-26T12:47:46.316Z,1006.41
2017-05-26T12:50:11.114Z,1006.34
2017-05-26T12:52:18.910Z,1006.35
2017-05-26T12:54:43.595Z,1006.28
2017-05-26T12:57:08.297Z,1006.29
2017-05-26T12:59:32.982Z,1006.2
2017-05-26T13:01:49.189Z,1006.2
2017-05-26T13:04:13.895Z,1006.21
2017-05-26T13:06:38.576Z,1006.14
2017-05-26T13:08:46.410Z,1006.16
2017-05-26T13:11:11.191Z,1006.17
2017-05-26T13:13:36.019Z,1006.11
2017-05-26T13:16:00.782Z,1005.99
2017-05-26T13:18:25.578Z,1006.03
2017-05-26T13:20:50.284Z,1006.12
2017-05-26T13:23:15.068Z,1006.01
2017-05-26T13:25:31.384Z,1006.02
2017-05-26T13:27:56.178Z,1005.95
2017-05-26T13:30:20.902Z,1005.92
2017-05-26T13:32:45.695Z,1005.93
2017-05-26T13:35:02.000Z,1005.92
2017-05-26T13:37:18.311Z,1005.97
2017-05-26T13:39:34.591Z,1005.78
2017-05-26T13:41:59.252Z,1005.78
2017-05-26T13:44:23.971Z,1005.81
2017-05-26T13:46:48.775Z,1005.84
2017-05-26T13:49:13.471Z,1005.85
2017-05-26T13:51:38.159Z,1005.78
2017-05-26T13:54:02.954Z,1005.72
2017-05-26T13:56:27.756Z,1005.71
2017-05-26T13:58:52.449Z,1005.65
2017-05-26T14:01:17.160Z,1005.68
2017-05-26T14:03:41.834Z,1005.61
2017-05-26T14:06:06.633Z,1005.68
2017-05-26T14:08:31.436Z,1005.56
2017-05-26T14:10:56.237Z,1005.47
2017-05-26T14:13:21.041Z,1005.44
2017-05-26T14:15:45.844Z,1005.45
2017-05-26T14:18:02.137Z,1005.45
2017-05-26T14:20:26.946Z,1005.45
2017-05-26T14:22:51.748Z,1005.45
2017-05-26T14:25:16.545Z,1005.36
2017-05-26T14:27:26.666Z,1005.24
2017-05-26T14:29:51.495Z,1005.3
2017-05-26T14:31:53.094Z,1005.28
2017-05-26T14:34:17.948Z,1005.3
2017-05-26T14:36:42.751Z,1005.23
2017-05-26T14:39:07.550Z,1005.15
2017-05-26T14:41:32.358Z,1005.1
2017-05-26T14:43:57.148Z,1005.15
2017-05-26T14:46:21.936Z,1005.14
2017-05-26T14:48:46.736Z,1005.12
2017-05-26T14:51:11.536Z,1005.09
2017-05-26T14:53:36.229Z,1005.06
2017-05-26T14:56:01.038Z,1005.08
2017-05-26T14:58:17.326Z,1005.09
2017-05-26T15:00:42.121Z,1005.05
2017-05-26T15:03:06.933Z,1005.06
2017-05-26T15:05:08.590Z,1005.12
2017-05-26T15:07:33.390Z,1005
2017-05-26T15:09:49.703Z,1005.04
2017-05-26T15:12:14.478Z,1004.99
2017-05-26T15:14:39.280Z,1005.11
2017-05-26T15:17:03.978Z,1005.08
2017-05-26T15:19:28.764Z,1005.03
2017-05-26T15:21:53.468Z,1005.03
2017-05-26T15:24:18.279Z,1004.85
2017-05-26T15:26:42.963Z,1005.09
2017-05-26T15:29:07.806Z,1005
2017-05-26T15:31:32.560Z,1005.1
2017-05-26T15:33:48.871Z,1005.06
2017-05-26T15:36:13.664Z,1005.02
2017-05-26T15:38:29.966Z,1005.04
2017-05-26T15:40:54.654Z,1004.96
2017-05-26T15:43:19.333Z,1005.14
2017-05-26T15:45:44.162Z,1004.99
2017-05-26T15:48:08.958Z,1004.88
2017-05-26T15:50:10.512Z,1004.89
2017-05-26T15:52:35.303Z,1004.86
2017-05-26T15:54:51.594Z,1004.92
2017-05-26T15:57:16.304Z,1004.86
2017-05-26T15:59:40.990Z,1004.82
2017-05-26T16:01:42.540Z,1004.82
2017-05-26T16:04:07.336Z,1004.88
2017-05-26T16:06:32.160Z,1004.82
2017-05-26T16:08:48.465Z,1004.77
2017-05-26T16:11:13.264Z,1004.79
2017-05-26T16:13:38.050Z,1004.72
2017-05-26T16:16:02.745Z,1004.77
2017-05-26T16:18:27.444Z,1004.72
2017-05-26T16:20:43.733Z,1004.78
2017-05-26T16:23:08.473Z,1004.78
2017-05-26T16:25:33.239Z,1004.71
2017-05-26T16:27:58.030Z,1004.77
2017-05-26T16:30:23.751Z,1004.71
2017-05-26T16:32:48.546Z,1004.71
2017-05-26T16:35:13.252Z,1004.66
2017-05-26T16:37:38.046Z,1004.68
2017-05-26T16:39:54.333Z,1004.63
2017-05-26T16:42:19.034Z,1004.66
2017-05-26T16:44:35.263Z,1004.64
2017-05-26T16:47:00.038Z,1004.69
2017-05-26T16:49:10.147Z,1004.73
2017-05-26T16:51:34.879Z,1004.71
2017-05-26T16:53:59.575Z,1004.65
2017-05-26T16:56:24.278Z,1004.69
2017-05-26T16:58:40.495Z,1004.74
2017-05-26T17:01:05.173Z,1004.73
2017-05-26T17:03:29.864Z,1004.74
2017-05-26T17:05:54.572Z,1004.8
2017-05-26T17:08:10.761Z,1004.85
2017-05-26T17:10:27.074Z,1004.82
2017-05-26T17:12:51.859Z,1004.74
2017-05-26T17:15:16.563Z,1004.75
2017-05-26T17:17:32.774Z,1004.72
2017-05-26T17:19:57.577Z,1004.74
2017-05-26T17:22:22.356Z,1004.75
2017-05-26T17:24:47.106Z,1004.77
2017-05-26T17:27:11.733Z,1004.78
2017-05-26T17:29:28.011Z,1004.78
2017-05-26T17:31:44.226Z,1004.81
2017-05-26T17:34:08.931Z,1004.81
2017-05-26T17:38:58.426Z,1004.83
2017-05-26T17:41:14.624Z,1004.83
2017-05-26T17:43:39.317Z,1004.83
2017-05-26T17:45:49.439Z,1004.84
2017-05-26T17:48:05.678Z,1004.84
2017-05-26T17:50:30.380Z,1004.87
2017-05-26T17:52:55.055Z,1004.88
2017-05-26T17:55:19.737Z,1004.85
2017-05-26T17:57:35.987Z,1004.81
2017-05-26T18:01:36.510Z,1004.86
2017-05-26T18:04:01.376Z,1004.86
2017-05-26T18:06:26.080Z,1004.8
2017-05-26T18:08:50.846Z,1004.81
2017-05-26T18:11:15.485Z,1004.88
2017-05-26T18:13:41.416Z,1004.92
2017-05-26T18:16:06.389Z,1004.9
2017-05-26T18:18:30.994Z,1004.81
2017-05-26T18:20:56.667Z,1004.86
2017-05-26T18:23:22.499Z,1004.79
2017-05-26T18:25:47.067Z,1004.91
2017-05-26T18:28:12.695Z,1004.83
2017-05-26T18:30:37.316Z,1004.81
2017-05-26T18:34:38.236Z,1004.73
2017-05-26T18:40:23.582Z,1004.82
2017-05-26T18:42:48.244Z,1004.85
2017-05-26T18:45:12.888Z,1004.8
2017-05-26T18:47:37.491Z,1004.81
2017-05-26T18:50:02.076Z,1004.81
2017-05-26T18:52:26.757Z,1004.81
2017-05-26T18:54:51.297Z,1004.8
2017-05-26T18:57:07.484Z,1004.82
2017-05-26T18:59:32.113Z,1004.86
2017-05-26T19:01:56.458Z,1004.88
2017-05-26T19:04:21.022Z,1004.86
2017-05-26T19:06:45.661Z,1004.94
2017-05-26T19:09:17.388Z,1004.94
2017-05-26T19:11:55.068Z,1004.93
2017-05-26T19:14:20.187Z,1005.04
2017-05-26T19:16:44.599Z,1004.98
2017-05-26T19:19:09.096Z,1004.97
2017-05-26T19:21:34.165Z,1004.98
2017-05-26T19:23:35.702Z,1005
2017-05-26T19:26:00.347Z,1005.05
2017-05-26T19:28:24.833Z,1005.06
2017-05-26T19:30:49.388Z,1005.1
2017-05-26T19:33:13.810Z,1005.08
2017-05-26T19:35:29.845Z,1005.04
2017-05-26T19:37:54.788Z,1005.06
2017-05-26T19:40:21.889Z,1005.04
2017-05-26T19:42:46.359Z,1005.03
2017-05-26T19:45:10.891Z,1005.02
2017-05-26T19:50:06.162Z,1004.98
2017-05-26T19:52:22.149Z,1004.99
2017-05-26T19:54:46.663Z,1005.02
2017-05-26T19:57:11.155Z,1004.98
2017-05-26T19:59:35.639Z,1005.02
2017-05-26T20:02:00.130Z,1005.1
2017-05-26T20:04:24.526Z,1005.13
2017-05-26T20:06:49.006Z,1005.16
2017-05-26T20:09:13.523Z,1005.21
2017-05-26T20:11:37.980Z,1005.26
2017-05-26T20:14:02.475Z,1005.28
2017-05-26T20:16:12.514Z,1005.23
2017-05-26T20:18:37.027Z,1005.26
2017-05-26T20:21:01.524Z,1005.23
2017-05-26T20:23:26.019Z,1005.25
2017-05-26T20:25:41.999Z,1005.28
2017-05-26T20:28:06.488Z,1005.29
2017-05-26T20:30:30.979Z,1005.32
2017-05-26T20:32:55.490Z,1005.39
2017-05-26T20:35:05.572Z,1005.41
2017-05-26T20:37:30.016Z,1005.41
2017-05-26T20:39:31.467Z,1005.45
2017-05-26T20:41:55.840Z,1005.43
2017-05-26T20:44:20.234Z,1005.47
2017-05-26T20:46:44.743Z,1005.49
2017-05-26T20:49:09.214Z,1005.51
2017-05-26T20:51:02.224Z,1005.5
2017-05-26T20:53:26.680Z,1005.52
2017-05-26T20:55:51.156Z,1005.59
2017-05-26T20:58:15.547Z,1005.6
2017-05-26T21:00:39.935Z,1005.57
2017-05-26T21:03:04.337Z,1005.61
2017-05-26T21:05:28.763Z,1005.64
2017-05-26T21:07:53.203Z,1005.67
2017-05-26T21:10:17.979Z,1005.68
2017-05-26T21:12:33.757Z,1005.66
2017-05-26T21:17:00.419Z,1005.68
2017-05-26T21:19:17.741Z,1005.68
2017-05-26T21:21:56.729Z,1005.68
2017-05-26T21:24:12.853Z,1005.67
2017-05-26T21:26:39.761Z,1005.72
2017-05-26T21:30:40.012Z,1005.7
2017-05-26T21:33:04.472Z,1005.68
2017-05-26T21:35:28.864Z,1005.72
2017-05-26T21:37:53.246Z,1005.67
2017-05-26T21:40:17.645Z,1005.65
2017-05-26T21:42:19.087Z,1005.64
2017-05-26T21:44:43.486Z,1005.65
2017-05-26T21:46:59.368Z,1005.64
2017-05-26T21:48:52.401Z,1005.62
2017-05-26T21:51:16.797Z,1005.61
2017-05-26T21:53:41.190Z,1005.63
2017-05-26T21:56:05.516Z,1005.65
2017-05-26T21:58:29.849Z,1005.6
2017-05-26T22:00:54.168Z,1005.62
2017-05-26T22:03:18.448Z,1005.64
2017-05-26T22:05:42.733Z,1005.64
2017-05-26T22:08:07.020Z,1005.57
2017-05-26T22:10:22.847Z,1005.47
2017-05-26T22:12:47.099Z,1005.6
2017-05-26T22:17:56.842Z,1005.65
2017-05-26T22:20:21.091Z,1005.69
2017-05-26T22:22:45.435Z,1005.69
2017-05-26T22:25:09.718Z,1005.7
2017-05-26T22:27:25.550Z,1005.67
2017-05-26T22:29:49.887Z,1005.65
2017-05-26T22:32:14.188Z,1005.65
2017-05-26T22:34:38.488Z,1005.64
2017-05-26T22:37:02.757Z,1005.62
2017-05-26T22:39:26.968Z,1005.57
2017-05-26T22:41:51.217Z,1005.57
2017-05-26T22:44:15.429Z,1005.62
2017-05-26T22:46:31.175Z,1005.66
2017-05-26T22:48:55.478Z,1005.64
2017-05-26T22:51:19.769Z,1005.64
2017-05-26T22:53:44.058Z,1005.64
2017-05-26T22:56:08.337Z,1005.62
2017-05-26T22:58:32.630Z,1005.61
2017-05-26T23:00:56.885Z,1005.59
2017-05-26T23:03:21.064Z,1005.61
2017-05-26T23:05:45.256Z,1005.6
2017-05-26T23:08:09.451Z,1005.59
2017-05-26T23:10:33.579Z,1005.6
2017-05-26T23:12:57.718Z,1005.59
2017-05-26T23:15:13.442Z,1005.56
2017-05-26T23:17:37.614Z,1005.54
2017-05-26T23:19:53.336Z,1005.52
2017-05-26T23:22:17.508Z,1005.55
2017-05-26T23:24:41.677Z,1005.58
2017-05-26T23:27:05.835Z,1005.62
2017-05-26T23:29:29.984Z,1005.62
2017-05-26T23:31:54.135Z,1005.59
2017-05-26T23:34:18.300Z,1005.53
2017-05-26T23:36:42.437Z,1005.49
2017-05-26T23:39:06.577Z,1005.48
2017-05-26T23:41:30.666Z,1005.48
2017-05-26T23:43:54.801Z,1005.43
2017-05-26T23:46:10.461Z,1005.41
2017-05-26T23:48:34.576Z,1005.39
2017-05-26T23:50:58.710Z,1005.37
2017-05-26T23:53:22.813Z,1005.31
2017-05-26T23:55:46.923Z,1005.29
2017-05-26T23:57:39.995Z,1005.28
